Time;durP1;ratioP1;P1;durP2;ratioP2;P2;SDS_P1;SDS_P2;PMS_P1;PMS_P2;Temp;Humidity;BMP_temperature;BMP_pressure;BME280_temperature;BME280_humidity;BME280_pressure;Samples;Min_cycle;Max_cycle;Signal;HPM_P1;HPM_P2
2022/08/14 00:00:11;;;;;;;;;;;24.10;86.50;;;;;;2013008;28;19916;-70
2022/08/14 00:01:09;;;;;;;;;;;24.20;86.90;;;;;;2013063;28;19916;-71
2022/08/14 00:02:08;;;;;;;;;;;24.10;86.80;;;;;;2012907;28;20357;-71
2022/08/14 00:03:06;;;;;;;;;;;24.10;86.70;;;;;;2012699;28;19909;-71
2022/08/14 00:04:05;;;;;;;;;;;24.10;86.90;;;;;;2012838;28;19956;-72
2022/08/14 00:05:05;;;;;;;;;;;24.10;86.70;;;;;;2012784;28;19913;-72
2022/08/14 00:06:03;;;;;;;;;;;24.10;86.70;;;;;;2012105;28;19920;-70
2022/08/14 00:07:02;;;;;;;;;;;24.10;86.90;;;;;;2012414;28;19916;-70
2022/08/14 00:08:01;;;;;;;;;;;24.10;86.60;;;;;;2012856;28;19917;-71
2022/08/14 00:08:59;;;;;;;;;;;24.10;86.80;;;;;;2012950;28;20341;-73
2022/08/14 00:09:58;;;;;;;;;;;24.10;86.70;;;;;;2013023;28;19909;-70
2022/08/14 00:10:57;;;;;;;;;;;24.10;86.90;;;;;;2013053;28;20202;-71
2022/08/14 00:11:55;;;;;;;;;;;24.10;86.90;;;;;;2012810;28;19928;-71
2022/08/14 00:12:55;;;;;;;;;;;24.20;87.00;;;;;;2012779;28;19909;-71
2022/08/14 00:13:53;;;;;;;;;;;24.10;86.90;;;;;;2012769;28;19913;-72
2022/08/14 00:14:52;;;;;;;;;;;24.20;87.00;;;;;;2012824;28;19909;-70
2022/08/14 00:15:50;;;;;;;;;;;24.20;87.00;;;;;;2012781;28;19940;-72
2022/08/14 00:16:49;;;;;;;;;;;24.10;86.80;;;;;;2012720;28;20320;-72
2022/08/14 00:17:49;;;;;;;;;;;24.10;86.60;;;;;;2012724;28;19999;-72
2022/08/14 00:18:47;;;;;;;;;;;24.10;86.70;;;;;;2012848;28;19916;-71
2022/08/14 00:19:46;;;;;;;;;;;24.10;86.90;;;;;;2012788;28;19915;-73
2022/08/14 00:20:45;;;;;;;;;;;24.20;87.00;;;;;;2012976;28;19958;-73
2022/08/14 00:21:43;;;;;;;;;;;24.10;86.90;;;;;;2012771;28;20265;-71
2022/08/14 00:22:42;;;;;;;;;;;24.10;86.80;;;;;;2012790;28;19919;-72
2022/08/14 00:23:40;;;;;;;;;;;24.20;87.00;;;;;;2012819;28;19959;-72
2022/08/14 00:24:39;;;;;;;;;;;24.20;87.10;;;;;;2012815;28;19909;-71
2022/08/14 00:25:38;;;;;;;;;;;24.10;86.90;;;;;;2012835;28;19955;-72
2022/08/14 00:26:36;;;;;;;;;;;24.10;86.90;;;;;;2012741;28;19909;-72
2022/08/14 00:27:35;;;;;;;;;;;24.10;86.90;;;;;;2012923;28;20297;-71
2022/08/14 00:28:34;;;;;;;;;;;24.20;87.20;;;;;;2012692;28;19936;-72
2022/08/14 00:29:33;;;;;;;;;;;24.10;87.20;;;;;;2012887;28;19957;-73
2022/08/14 00:30:31;;;;;;;;;;;24.10;86.80;;;;;;2012686;28;19909;-73
2022/08/14 00:31:30;;;;;;;;;;;24.10;87.00;;;;;;2012729;28;19953;-73
2022/08/14 00:32:28;;;;;;;;;;;24.20;87.00;;;;;;2012733;28;20045;-71
2022/08/14 00:33:27;;;;;;;;;;;24.20;87.10;;;;;;2012607;28;20004;-71
2022/08/14 00:34:26;;;;;;;;;;;24.10;86.80;;;;;;2012723;28;19909;-71
2022/08/14 00:35:24;;;;;;;;;;;24.10;86.80;;;;;;2012768;28;20340;-72
2022/08/14 00:36:23;;;;;;;;;;;24.10;87.10;;;;;;2012906;28;19913;-72
2022/08/14 00:37:22;;;;;;;;;;;24.10;86.90;;;;;;2012967;28;20372;-71
2022/08/14 00:38:20;;;;;;;;;;;24.10;86.90;;;;;;2012716;28;19971;-70
2022/08/14 00:39:19;;;;;;;;;;;24.10;87.00;;;;;;2012807;28;19909;-71
2022/08/14 00:40:18;;;;;;;;;;;24.10;87.20;;;;;;2012674;28;20367;-72
2022/08/14 00:41:17;;;;;;;;;;;24.10;87.30;;;;;;2012961;28;20036;-71
2022/08/14 00:42:18;;;;;;;;;;;24.10;87.20;;;;;;2012612;28;20316;-72
2022/08/14 00:43:16;;;;;;;;;;;24.10;87.20;;;;;;2012777;28;20292;-71
2022/08/14 00:44:15;;;;;;;;;;;24.10;87.10;;;;;;2012684;28;19931;-71
2022/08/14 00:45:15;;;;;;;;;;;24.10;87.00;;;;;;2012715;28;19993;-70
2022/08/14 00:46:13;;;;;;;;;;;24.10;86.90;;;;;;2012740;28;19917;-72
2022/08/14 00:47:15;;;;;;;;;;;24.10;87.10;;;;;;2012735;28;19909;-71
2022/08/14 00:48:17;;;;;;;;;;;24.10;87.70;;;;;;2012717;28;19913;-72
2022/08/14 00:49:16;;;;;;;;;;;24.10;87.90;;;;;;2013099;28;19916;-72
2022/08/14 00:50:18;;;;;;;;;;;24.20;87.20;;;;;;2014362;28;19917;-72
2022/08/14 00:51:17;;;;;;;;;;;24.20;87.40;;;;;;2014313;28;19913;-71
2022/08/14 00:52:15;;;;;;;;;;;24.10;87.70;;;;;;2014032;28;19909;-71
2022/08/14 00:53:15;;;;;;;;;;;24.20;87.50;;;;;;2014276;28;19913;-72
2022/08/14 00:54:15;;;;;;;;;;;24.10;87.10;;;;;;2014449;28;19913;-72
2022/08/14 00:55:14;;;;;;;;;;;24.10;87.30;;;;;;2014338;28;19913;-71
2022/08/14 00:56:12;;;;;;;;;;;24.10;87.40;;;;;;2014196;28;20043;-70
2022/08/14 00:57:11;;;;;;;;;;;24.10;87.10;;;;;;2014108;28;20376;-72
2022/08/14 00:59:28;;;;;;;;;;;24.10;87.30;;;;;;2014177;28;19909;-72
2022/08/14 01:00:27;;;;;;;;;;;24.10;87.30;;;;;;2014184;28;19933;-72
2022/08/14 01:01:25;;;;;;;;;;;24.10;87.30;;;;;;2014022;28;19909;-71
2022/08/14 01:02:24;;;;;;;;;;;24.10;87.30;;;;;;2014021;28;19917;-71
2022/08/14 01:03:23;;;;;;;;;;;24.10;87.40;;;;;;2014102;28;19916;-71
2022/08/14 01:04:22;;;;;;;;;;;24.10;87.40;;;;;;2014097;28;19910;-71
2022/08/14 01:05:23;;;;;;;;;;;24.10;87.40;;;;;;2014300;28;19916;-71
2022/08/14 01:06:22;;;;;;;;;;;24.10;87.20;;;;;;2014096;28;20348;-72
2022/08/14 01:07:21;;;;;;;;;;;24.20;87.50;;;;;;2014052;28;19963;-71
2022/08/14 01:08:21;;;;;;;;;;;24.10;87.70;;;;;;2014211;28;20360;-72
2022/08/14 01:09:21;;;;;;;;;;;24.20;87.50;;;;;;2014036;28;19992;-71
2022/08/14 01:10:20;;;;;;;;;;;24.10;87.40;;;;;;2014120;28;19916;-73
2022/08/14 01:11:18;;;;;;;;;;;24.10;87.30;;;;;;2014174;28;20272;-71
2022/08/14 01:12:17;;;;;;;;;;;24.10;87.30;;;;;;2013975;28;19921;-71
2022/08/14 01:13:18;;;;;;;;;;;24.10;87.50;;;;;;2014391;28;19915;-70
2022/08/14 01:14:17;;;;;;;;;;;24.10;87.40;;;;;;2013971;28;20421;-72
2022/08/14 01:15:20;;;;;;;;;;;24.10;87.30;;;;;;2014042;28;19915;-71
2022/08/14 01:16:19;;;;;;;;;;;24.20;87.40;;;;;;2014048;28;20344;-72
2022/08/14 01:17:18;;;;;;;;;;;24.10;87.30;;;;;;2014046;28;19999;-71
2022/08/14 01:21:15;;;;;;;;;;;24.20;87.50;;;;;;2014009;28;19909;-70
2022/08/14 01:22:14;;;;;;;;;;;24.20;87.50;;;;;;2014056;28;20356;-70
2022/08/14 01:23:13;;;;;;;;;;;24.10;87.50;;;;;;2014490;28;20000;-70
2022/08/14 01:24:14;;;;;;;;;;;24.10;87.40;;;;;;2013969;28;20000;-73
2022/08/14 01:25:12;;;;;;;;;;;24.10;87.50;;;;;;2014558;28;19915;-70
2022/08/14 01:26:12;;;;;;;;;;;24.10;87.50;;;;;;2013901;28;20303;-71
2022/08/14 01:27:16;;;;;;;;;;;24.10;87.40;;;;;;2013881;28;19909;-72
2022/08/14 01:28:15;;;;;;;;;;;24.10;87.70;;;;;;2013236;28;19913;-71
2022/08/14 01:29:14;;;;;;;;;;;24.20;87.60;;;;;;2013353;28;19923;-71
2022/08/14 01:30:12;;;;;;;;;;;24.10;87.60;;;;;;2014143;28;19909;-71
2022/08/14 01:31:14;;;;;;;;;;;24.10;87.70;;;;;;2013864;28;19916;-72
2022/08/14 01:32:13;;;;;;;;;;;24.20;87.70;;;;;;2013874;28;20011;-72
2022/08/14 01:33:11;;;;;;;;;;;24.10;87.50;;;;;;2014568;28;19909;-71
2022/08/14 01:34:10;;;;;;;;;;;24.10;87.50;;;;;;2013183;28;20408;-71
2022/08/14 01:35:10;;;;;;;;;;;24.10;87.60;;;;;;2013248;28;19909;-71
2022/08/14 01:36:09;;;;;;;;;;;24.10;87.50;;;;;;2013945;28;19999;-71
2022/08/14 01:37:09;;;;;;;;;;;24.10;87.80;;;;;;2013951;28;20361;-70
2022/08/14 01:38:08;;;;;;;;;;;24.20;88.00;;;;;;2014009;28;20276;-70
2022/08/14 01:39:09;;;;;;;;;;;24.10;87.90;;;;;;2013868;28;19909;-70
2022/08/14 01:40:08;;;;;;;;;;;24.10;87.80;;;;;;2013794;28;20266;-70
2022/08/14 01:41:07;;;;;;;;;;;24.10;87.70;;;;;;2013862;28;19916;-70
2022/08/14 01:42:06;;;;;;;;;;;24.10;87.90;;;;;;2013097;28;19909;-70
2022/08/14 01:43:15;;;;;;;;;;;24.10;87.90;;;;;;2013442;28;20307;-71
2022/08/14 01:44:14;;;;;;;;;;;24.20;88.00;;;;;;2013926;28;20455;-71
2022/08/14 01:45:13;;;;;;;;;;;24.10;87.90;;;;;;2013322;28;19971;-71
2022/08/14 01:46:11;;;;;;;;;;;24.10;87.80;;;;;;2014160;28;19963;-72
2022/08/14 01:47:14;;;;;;;;;;;24.10;87.80;;;;;;2013798;28;19944;-70
2022/08/14 01:48:13;;;;;;;;;;;24.10;87.90;;;;;;2013902;28;19909;-71
2022/08/14 01:49:14;;;;;;;;;;;24.10;87.80;;;;;;2013915;28;19909;-70
2022/08/14 01:50:12;;;;;;;;;;;24.10;88.00;;;;;;2013871;28;19999;-71
2022/08/14 01:51:12;;;;;;;;;;;24.10;87.80;;;;;;2013961;28;19916;-71
2022/08/14 01:52:11;;;;;;;;;;;24.20;88.10;;;;;;2013799;28;19988;-70
2022/08/14 01:53:11;;;;;;;;;;;24.20;88.20;;;;;;2019334;28;19909;-69
2022/08/14 01:54:11;;;;;;;;;;;24.20;88.20;;;;;;2015242;28;19913;-71
2022/08/14 01:55:13;;;;;;;;;;;24.10;88.00;;;;;;2013710;28;19909;-70
2022/08/14 01:56:12;;;;;;;;;;;24.10;88.10;;;;;;2013853;28;19909;-71
2022/08/14 01:57:12;;;;;;;;;;;24.10;88.10;;;;;;2013768;28;20295;-70
2022/08/14 01:58:14;;;;;;;;;;;24.10;88.00;;;;;;2013726;28;19909;-70
2022/08/14 01:59:25;;;;;;;;;;;24.10;88.20;;;;;;2013787;28;19909;-71
2022/08/14 02:00:23;;;;;;;;;;;24.10;88.30;;;;;;2013529;28;19909;-71
2022/08/14 02:01:22;;;;;;;;;;;24.10;88.40;;;;;;2013661;28;19967;-70
2022/08/14 02:02:21;;;;;;;;;;;24.10;88.50;;;;;;2015234;28;20012;-69
2022/08/14 02:03:22;;;;;;;;;;;24.10;88.60;;;;;;2014934;28;19918;-71
2022/08/14 02:04:22;;;;;;;;;;;24.10;88.40;;;;;;2016997;28;19928;-71
2022/08/14 02:05:22;;;;;;;;;;;24.10;88.40;;;;;;2014595;28;19916;-70
2022/08/14 02:06:20;;;;;;;;;;;24.10;88.60;;;;;;2013872;28;19909;-70
2022/08/14 02:07:19;;;;;;;;;;;24.10;88.40;;;;;;2013845;28;19909;-71
2022/08/14 02:08:17;;;;;;;;;;;24.10;88.60;;;;;;2013800;28;19973;-71
2022/08/14 02:09:17;;;;;;;;;;;24.00;88.40;;;;;;2013875;28;20233;-70
2022/08/14 02:10:16;;;;;;;;;;;24.10;88.50;;;;;;2013732;28;19977;-71
2022/08/14 02:11:21;;;;;;;;;;;24.10;88.60;;;;;;2013005;28;20026;-71
2022/08/14 02:12:19;;;;;;;;;;;24.20;89.00;;;;;;2014698;28;19928;-71
2022/08/14 02:13:19;;;;;;;;;;;24.10;89.00;;;;;;2020019;28;19914;-70
2022/08/14 02:14:17;;;;;;;;;;;24.10;89.00;;;;;;2016405;28;19909;-71
2022/08/14 02:15:20;;;;;;;;;;;24.10;89.20;;;;;;2013665;28;19909;-70
2022/08/14 02:16:20;;;;;;;;;;;24.10;89.20;;;;;;2013645;28;19909;-71
2022/08/14 02:17:22;;;;;;;;;;;24.10;89.40;;;;;;2013561;28;19913;-70
2022/08/14 02:18:20;;;;;;;;;;;24.10;89.40;;;;;;2013834;28;19959;-70
2022/08/14 02:19:20;;;;;;;;;;;24.10;89.80;;;;;;2013739;28;19959;-70
2022/08/14 02:20:19;;;;;;;;;;;24.10;90.30;;;;;;2013565;28;20016;-71
2022/08/14 02:21:18;;;;;;;;;;;24.00;90.10;;;;;;2013707;28;19916;-70
2022/08/14 02:22:17;;;;;;;;;;;24.10;90.20;;;;;;2013606;28;19971;-71
2022/08/14 02:23:16;;;;;;;;;;;24.10;90.40;;;;;;2013747;28;19988;-71
2022/08/14 02:24:15;;;;;;;;;;;24.10;90.60;;;;;;2013899;28;19913;-70
2022/08/14 02:25:14;;;;;;;;;;;24.10;91.20;;;;;;2016297;28;19917;-71
2022/08/14 02:26:17;;;;;;;;;;;24.10;91.80;;;;;;2014568;28;20344;-70
2022/08/14 02:27:17;;;;;;;;;;;24.10;91.80;;;;;;2014851;28;19981;-71
2022/08/14 02:28:15;;;;;;;;;;;24.10;91.90;;;;;;2016028;28;20281;-72
2022/08/14 02:29:16;;;;;;;;;;;24.10;91.80;;;;;;2016225;28;19921;-70
2022/08/14 02:30:15;;;;;;;;;;;24.10;92.00;;;;;;2015743;28;19996;-73
2022/08/14 02:31:14;;;;;;;;;;;24.10;91.90;;;;;;2016731;28;20327;-70
2022/08/14 02:32:12;;;;;;;;;;;24.10;91.80;;;;;;2015504;28;19909;-70
2022/08/14 02:33:11;;;;;;;;;;;24.10;91.80;;;;;;2014755;28;20321;-71
2022/08/14 02:34:12;;;;;;;;;;;24.10;91.70;;;;;;2014587;28;19910;-71
2022/08/14 02:35:17;;;;;;;;;;;24.10;91.70;;;;;;2014546;28;19909;-70
2022/08/14 02:36:15;;;;;;;;;;;24.10;91.80;;;;;;2013899;28;19925;-70
2022/08/14 02:37:14;;;;;;;;;;;24.10;91.80;;;;;;2013383;28;20283;-71
2022/08/14 02:38:13;;;;;;;;;;;24.10;91.50;;;;;;2013625;28;19909;-70
2022/08/14 02:39:12;;;;;;;;;;;24.10;91.40;;;;;;2013567;28;19909;-70
2022/08/14 02:40:11;;;;;;;;;;;24.10;91.40;;;;;;2013586;28;19916;-70
2022/08/14 02:41:11;;;;;;;;;;;24.10;91.40;;;;;;2013373;28;19909;-69
2022/08/14 02:42:12;;;;;;;;;;;24.20;91.50;;;;;;2013463;28;19909;-71
2022/08/14 02:43:12;;;;;;;;;;;24.10;91.20;;;;;;2013661;28;19916;-70
2022/08/14 02:44:11;;;;;;;;;;;24.10;91.40;;;;;;2013348;28;19945;-71
2022/08/14 02:45:09;;;;;;;;;;;24.10;91.40;;;;;;2013608;28;19909;-70
2022/08/14 02:46:09;;;;;;;;;;;24.10;91.40;;;;;;2015087;28;20020;-71
2022/08/14 02:47:08;;;;;;;;;;;24.10;91.30;;;;;;2012824;28;19945;-70
2022/08/14 02:48:07;;;;;;;;;;;24.00;91.20;;;;;;2012832;28;19909;-70
2022/08/14 02:49:05;;;;;;;;;;;24.10;91.30;;;;;;2013573;28;19909;-70
2022/08/14 02:50:04;;;;;;;;;;;24.00;91.20;;;;;;2013489;28;19948;-70
2022/08/14 02:51:04;;;;;;;;;;;24.10;91.30;;;;;;2013266;28;19909;-70
2022/08/14 02:52:06;;;;;;;;;;;24.10;91.30;;;;;;2013414;28;19948;-70
2022/08/14 02:53:04;;;;;;;;;;;24.10;91.30;;;;;;2013250;28;19909;-71
2022/08/14 02:54:05;;;;;;;;;;;24.00;91.30;;;;;;2013169;28;20284;-70
2022/08/14 02:55:04;;;;;;;;;;;24.00;91.30;;;;;;2013322;28;19913;-70
2022/08/14 02:56:03;;;;;;;;;;;24.10;91.30;;;;;;2013343;28;20321;-70
2022/08/14 02:57:05;;;;;;;;;;;24.10;91.30;;;;;;2013142;28;19913;-72
2022/08/14 02:58:04;;;;;;;;;;;24.00;91.30;;;;;;2013272;28;19913;-72
2022/08/14 02:59:04;;;;;;;;;;;24.00;91.20;;;;;;2015114;28;19909;-71
2022/08/14 03:00:03;;;;;;;;;;;24.00;91.20;;;;;;2013287;28;20368;-71
2022/08/14 03:01:02;;;;;;;;;;;24.10;91.20;;;;;;2013179;28;19910;-70
2022/08/14 03:02:01;;;;;;;;;;;24.10;91.30;;;;;;2013457;28;19941;-70
2022/08/14 03:03:01;;;;;;;;;;;24.10;91.50;;;;;;2019155;28;19924;-70
2022/08/14 03:03:59;;;;;;;;;;;24.10;91.60;;;;;;2012665;28;19910;-71
2022/08/14 03:04:58;;;;;;;;;;;24.00;91.50;;;;;;2012652;28;19956;-71
2022/08/14 03:05:56;;;;;;;;;;;24.00;91.70;;;;;;2017612;28;19897;-71
2022/08/14 03:06:55;;;;;;;;;;;24.00;91.50;;;;;;2013204;28;19915;-71
2022/08/14 03:08:02;;;;;;;;;;;24.00;91.30;;;;;;2013131;28;19959;-70
2022/08/14 03:09:01;;;;;;;;;;;24.10;91.40;;;;;;2016552;28;20360;-70
2022/08/14 03:09:59;;;;;;;;;;;24.10;91.10;;;;;;2019004;28;19917;-72
2022/08/14 03:11:05;;;;;;;;;;;24.00;91.00;;;;;;2013216;28;20009;-72
2022/08/14 03:12:04;;;;;;;;;;;24.10;91.00;;;;;;2012566;28;20277;-71
2022/08/14 03:13:03;;;;;;;;;;;24.10;91.00;;;;;;2018090;28;19909;-69
2022/08/14 03:14:02;;;;;;;;;;;24.10;91.00;;;;;;2017828;28;19921;-73
2022/08/14 03:15:05;;;;;;;;;;;24.00;90.90;;;;;;2013074;28;19909;-72
2022/08/14 03:16:04;;;;;;;;;;;24.00;90.80;;;;;;2015650;28;20443;-72
2022/08/14 03:17:02;;;;;;;;;;;24.10;90.70;;;;;;2012940;28;19924;-70
2022/08/14 03:18:01;;;;;;;;;;;24.10;90.50;;;;;;2013161;28;19948;-71
2022/08/14 03:18:59;;;;;;;;;;;24.00;90.50;;;;;;2013734;28;19909;-70
2022/08/14 03:19:58;;;;;;;;;;;24.10;90.60;;;;;;2012489;28;20011;-70
2022/08/14 03:20:57;;;;;;;;;;;24.10;90.50;;;;;;2013065;28;19909;-70
2022/08/14 03:21:56;;;;;;;;;;;24.00;90.50;;;;;;2013249;28;20130;-72
2022/08/14 03:22:58;;;;;;;;;;;24.10;90.40;;;;;;2012972;28;19909;-70
2022/08/14 03:24:08;;;;;;;;;;;24.10;90.40;;;;;;2013154;28;19909;-70
2022/08/14 03:25:07;;;;;;;;;;;24.10;90.50;;;;;;2013169;28;19935;-70
2022/08/14 03:26:07;;;;;;;;;;;24.10;90.40;;;;;;2013146;28;19967;-71
2022/08/14 03:27:05;;;;;;;;;;;24.00;90.40;;;;;;2013121;28;19979;-70
2022/08/14 03:28:08;;;;;;;;;;;24.10;90.50;;;;;;2015747;28;19940;-72
2022/08/14 03:29:07;;;;;;;;;;;24.00;90.40;;;;;;2013286;28;20462;-72
2022/08/14 03:30:07;;;;;;;;;;;24.10;90.40;;;;;;2012905;28;19909;-71
2022/08/14 03:31:06;;;;;;;;;;;24.10;90.40;;;;;;2013594;28;20261;-71
2022/08/14 03:32:05;;;;;;;;;;;24.00;90.40;;;;;;2012997;28;19944;-72
2022/08/14 03:33:04;;;;;;;;;;;24.10;90.50;;;;;;2012828;28;19913;-72
2022/08/14 03:34:03;;;;;;;;;;;24.00;90.40;;;;;;2013058;28;19909;-70
2022/08/14 03:35:02;;;;;;;;;;;24.00;90.30;;;;;;2013094;28;20063;-71
2022/08/14 03:36:00;;;;;;;;;;;24.00;90.40;;;;;;2012860;28;19910;-72
2022/08/14 03:36:58;;;;;;;;;;;24.00;90.30;;;;;;2012898;28;19917;-72
2022/08/14 03:38:04;;;;;;;;;;;24.10;90.40;;;;;;2012864;28;19909;-70
2022/08/14 03:39:04;;;;;;;;;;;24.00;90.30;;;;;;2013026;28;19913;-70
2022/08/14 03:40:03;;;;;;;;;;;24.10;90.40;;;;;;2012826;28;19967;-71
2022/08/14 03:41:02;;;;;;;;;;;24.00;90.40;;;;;;2013023;28;19948;-73
2022/08/14 03:42:01;;;;;;;;;;;24.00;90.30;;;;;;2012830;28;19910;-71
2022/08/14 03:43:04;;;;;;;;;;;24.00;90.30;;;;;;2012858;28;19953;-70
2022/08/14 03:44:04;;;;;;;;;;;24.00;90.40;;;;;;2013140;28;19916;-72
2022/08/14 03:45:05;;;;;;;;;;;24.10;90.40;;;;;;2013125;28;19948;-71
2022/08/14 03:46:04;;;;;;;;;;;24.10;90.40;;;;;;2012263;28;19909;-71
2022/08/14 03:47:03;;;;;;;;;;;24.10;90.40;;;;;;2012317;28;20394;-73
2022/08/14 03:48:03;;;;;;;;;;;24.00;90.40;;;;;;2012313;28;19917;-72
2022/08/14 03:49:03;;;;;;;;;;;24.00;90.70;;;;;;2012278;28;19959;-71
2022/08/14 03:50:02;;;;;;;;;;;24.10;90.50;;;;;;2012989;28;19916;-72
2022/08/14 03:51:01;;;;;;;;;;;24.00;90.40;;;;;;2012946;28;20000;-72
2022/08/14 03:52:03;;;;;;;;;;;24.10;90.40;;;;;;2012843;28;20364;-70
2022/08/14 03:53:02;;;;;;;;;;;24.00;90.40;;;;;;2012746;28;19909;-72
2022/08/14 03:54:02;;;;;;;;;;;24.00;90.40;;;;;;2012746;28;19909;-71
2022/08/14 03:55:02;;;;;;;;;;;24.00;90.40;;;;;;2012750;28;19909;-72
2022/08/14 03:56:01;;;;;;;;;;;24.00;90.40;;;;;;2012984;28;20280;-73
2022/08/14 03:57:00;;;;;;;;;;;24.10;90.50;;;;;;2012889;28;19913;-70
2022/08/14 03:57:59;;;;;;;;;;;24.00;90.30;;;;;;2012948;28;19909;-72
2022/08/14 03:59:04;;;;;;;;;;;24.00;90.40;;;;;;2012939;28;19916;-73
2022/08/14 04:00:05;;;;;;;;;;;24.00;90.40;;;;;;2012993;28;20280;-71
2022/08/14 04:01:04;;;;;;;;;;;24.00;90.60;;;;;;2012889;28;20323;-70
2022/08/14 04:02:02;;;;;;;;;;;24.00;90.30;;;;;;2012699;28;19913;-71
2022/08/14 04:03:06;;;;;;;;;;;24.00;90.40;;;;;;2012778;28;19932;-71
2022/08/14 04:04:05;;;;;;;;;;;24.00;90.50;;;;;;2012887;28;20367;-71
2022/08/14 04:05:05;;;;;;;;;;;24.00;90.50;;;;;;2012810;28;19960;-71
2022/08/14 04:06:04;;;;;;;;;;;24.00;90.40;;;;;;2012601;28;20296;-72
2022/08/14 04:07:03;;;;;;;;;;;24.00;90.50;;;;;;2012749;28;19909;-72
2022/08/14 04:08:02;;;;;;;;;;;24.00;90.40;;;;;;2012685;28;19988;-70
2022/08/14 04:09:00;;;;;;;;;;;24.00;90.40;;;;;;2012857;28;19916;-71
2022/08/14 04:09:59;;;;;;;;;;;24.00;90.40;;;;;;2012814;28;20368;-73
2022/08/14 04:10:58;;;;;;;;;;;24.00;90.50;;;;;;2012647;28;19932;-72
2022/08/14 04:11:58;;;;;;;;;;;24.00;90.40;;;;;;2012558;28;19960;-70
2022/08/14 04:12:59;;;;;;;;;;;24.00;90.50;;;;;;2012748;28;19909;-70
2022/08/14 04:14:00;;;;;;;;;;;24.00;90.50;;;;;;2012717;28;19909;-72
2022/08/14 04:14:58;;;;;;;;;;;24.00;90.50;;;;;;2012873;28;19955;-72
2022/08/14 04:15:57;;;;;;;;;;;24.00;90.50;;;;;;2012878;28;20371;-72
2022/08/14 04:16:56;;;;;;;;;;;24.00;90.60;;;;;;2012681;28;19913;-72
2022/08/14 04:17:55;;;;;;;;;;;24.00;90.50;;;;;;2012777;28;20422;-72
2022/08/14 04:18:55;;;;;;;;;;;24.00;90.50;;;;;;2012890;28;19917;-73
2022/08/14 04:19:53;;;;;;;;;;;24.00;90.50;;;;;;2012823;28;19909;-71
2022/08/14 04:20:52;;;;;;;;;;;24.00;90.60;;;;;;2012723;28;20260;-72
2022/08/14 04:21:50;;;;;;;;;;;24.00;90.60;;;;;;2012762;28;19909;-72
2022/08/14 04:22:52;;;;;;;;;;;24.00;90.50;;;;;;2012606;28;19909;-72
2022/08/14 04:23:51;;;;;;;;;;;24.10;90.50;;;;;;2012755;28;19909;-72
2022/08/14 04:24:52;;;;;;;;;;;24.00;90.60;;;;;;2014302;28;19915;-72
2022/08/14 04:25:53;;;;;;;;;;;24.10;90.60;;;;;;2014319;28;19915;-72
2022/08/14 04:26:52;;;;;;;;;;;24.00;90.40;;;;;;2014477;28;19909;-70
2022/08/14 04:27:50;;;;;;;;;;;24.00;90.50;;;;;;2014540;28;20352;-70
2022/08/14 04:28:49;;;;;;;;;;;24.00;90.60;;;;;;2014302;28;20008;-70
2022/08/14 04:29:48;;;;;;;;;;;24.00;90.60;;;;;;2014391;28;19916;-70
2022/08/14 04:30:46;;;;;;;;;;;24.00;90.60;;;;;;2014384;28;19916;-71
2022/08/14 04:31:45;;;;;;;;;;;24.10;90.60;;;;;;2014374;28;20357;-70
2022/08/14 04:32:44;;;;;;;;;;;24.00;90.40;;;;;;2014281;28;19948;-71
2022/08/14 04:33:43;;;;;;;;;;;24.00;90.50;;;;;;2014228;28;19916;-71
2022/08/14 04:34:41;;;;;;;;;;;24.00;90.40;;;;;;2014180;28;19959;-73
2022/08/14 04:35:40;;;;;;;;;;;24.00;90.40;;;;;;2014402;28;19961;-71
2022/08/14 04:43:34;;;;;;;;;;;24.00;90.50;;;;;;2014138;28;20406;-71
2022/08/14 04:44:23;;;;;;;;;;;24.00;90.50;;;;;;2014365;28;19957;-71
2022/08/14 04:45:24;;;;;;;;;;;24.10;90.60;;;;;;2013535;28;19913;-71
2022/08/14 04:46:24;;;;;;;;;;;24.00;90.50;;;;;;2013633;28;20317;-71
2022/08/14 04:48:40;;;;;;;;;;;24.00;90.40;;;;;;2014231;28;19909;-72
2022/08/14 04:49:41;;;;;;;;;;;24.00;90.40;;;;;;2014062;28;19909;-71
2022/08/14 04:50:39;;;;;;;;;;;24.00;90.40;;;;;;2014212;28;20333;-72
2022/08/14 04:51:38;;;;;;;;;;;24.00;90.40;;;;;;2014023;28;19913;-72
2022/08/14 04:52:36;;;;;;;;;;;24.00;90.50;;;;;;2014050;28;19913;-71
2022/08/14 04:53:37;;;;;;;;;;;24.10;90.60;;;;;;2014190;28;19909;-73
2022/08/14 04:54:35;;;;;;;;;;;24.00;90.50;;;;;;2014210;28;20337;-73
2022/08/14 04:55:34;;;;;;;;;;;24.00;90.60;;;;;;2014002;28;19909;-71
2022/08/14 04:56:32;;;;;;;;;;;24.10;90.70;;;;;;2014882;28;20315;-71
2022/08/14 04:57:32;;;;;;;;;;;24.10;90.70;;;;;;2014583;28;19919;-72
2022/08/14 04:58:31;;;;;;;;;;;24.00;90.50;;;;;;2014070;28;19954;-73
2022/08/14 04:59:30;;;;;;;;;;;24.00;90.70;;;;;;2014061;28;19959;-71
2022/08/14 05:00:28;;;;;;;;;;;24.00;90.60;;;;;;2014080;28;20323;-71
2022/08/14 05:01:26;;;;;;;;;;;24.00;90.60;;;;;;2014029;28;20357;-71
2022/08/14 05:02:27;;;;;;;;;;;24.00;90.70;;;;;;2015288;28;20012;-70
2022/08/14 05:03:27;;;;;;;;;;;24.00;90.60;;;;;;2014981;28;19909;-72
2022/08/14 05:04:25;;;;;;;;;;;24.00;90.60;;;;;;2015383;28;19921;-71
2022/08/14 05:05:24;;;;;;;;;;;24.00;90.50;;;;;;2014001;28;20279;-71
2022/08/14 05:06:22;;;;;;;;;;;24.00;90.60;;;;;;2013981;28;20004;-71
2022/08/14 05:07:21;;;;;;;;;;;24.00;90.70;;;;;;2014045;28;20000;-71
2022/08/14 05:08:19;;;;;;;;;;;24.00;90.70;;;;;;2013957;28;19916;-72
2022/08/14 05:09:18;;;;;;;;;;;24.00;90.60;;;;;;2013941;28;19909;-72
2022/08/14 05:10:22;;;;;;;;;;;24.00;90.70;;;;;;2013948;28;19959;-72
2022/08/14 05:11:21;;;;;;;;;;;24.00;90.70;;;;;;2013841;28;19916;-71
2022/08/14 05:12:20;;;;;;;;;;;24.00;90.70;;;;;;2013234;28;19913;-72
2022/08/14 05:13:19;;;;;;;;;;;24.00;90.80;;;;;;2013408;28;19909;-71
2022/08/14 05:14:21;;;;;;;;;;;24.00;90.80;;;;;;2013873;28;19909;-71
2022/08/14 05:15:20;;;;;;;;;;;24.00;90.60;;;;;;2014056;28;20463;-74
2022/08/14 05:16:18;;;;;;;;;;;24.00;90.60;;;;;;2018312;28;19953;-70
2022/08/14 05:17:17;;;;;;;;;;;24.10;90.70;;;;;;2013933;28;20283;-71
2022/08/14 05:18:16;;;;;;;;;;;24.00;90.70;;;;;;2014074;28;20368;-71
2022/08/14 05:19:15;;;;;;;;;;;24.00;90.60;;;;;;2013880;28;19913;-71
2022/08/14 05:20:13;;;;;;;;;;;24.00;91.00;;;;;;2013927;28;19995;-71
2022/08/14 05:21:12;;;;;;;;;;;24.00;90.70;;;;;;2013923;28;19940;-71
2022/08/14 05:22:10;;;;;;;;;;;24.00;90.60;;;;;;2013179;28;20319;-70
2022/08/14 05:23:09;;;;;;;;;;;24.00;90.50;;;;;;2013394;28;19977;-71
2022/08/14 05:24:11;;;;;;;;;;;24.00;90.70;;;;;;2013750;28;19909;-71
2022/08/14 05:25:09;;;;;;;;;;;24.00;90.60;;;;;;2013928;28;19931;-71
2022/08/14 05:26:20;;;;;;;;;;;24.00;90.60;;;;;;2013848;28;19913;-71
2022/08/14 05:27:19;;;;;;;;;;;24.00;90.80;;;;;;2013852;28;19916;-71
2022/08/14 05:28:19;;;;;;;;;;;24.00;90.80;;;;;;2013883;28;19909;-70
2022/08/14 05:29:17;;;;;;;;;;;24.00;90.80;;;;;;2013939;28;19909;-71
2022/08/14 05:30:18;;;;;;;;;;;24.00;90.80;;;;;;2013817;28;19916;-71
2022/08/14 05:31:17;;;;;;;;;;;24.00;90.70;;;;;;2013750;28;19909;-70
2022/08/14 05:32:15;;;;;;;;;;;24.10;90.70;;;;;;2013811;28;19909;-72
2022/08/14 05:33:15;;;;;;;;;;;24.00;90.80;;;;;;2013939;28;20008;-73
2022/08/14 05:34:13;;;;;;;;;;;24.10;90.80;;;;;;2013834;28;20283;-72
2022/08/14 05:35:12;;;;;;;;;;;24.00;90.80;;;;;;2013294;28;19909;-73
2022/08/14 05:36:11;;;;;;;;;;;24.00;90.60;;;;;;2013177;28;20269;-72
2022/08/14 05:37:10;;;;;;;;;;;24.00;90.80;;;;;;2013324;28;20278;-72
2022/08/14 05:38:10;;;;;;;;;;;24.00;90.80;;;;;;2013738;28;19975;-72
2022/08/14 05:39:08;;;;;;;;;;;24.00;90.80;;;;;;2013792;28;19909;-72
2022/08/14 05:40:09;;;;;;;;;;;24.00;90.80;;;;;;2013925;28;19909;-72
2022/08/14 05:41:08;;;;;;;;;;;24.00;90.70;;;;;;2013918;28;19945;-71
2022/08/14 05:42:07;;;;;;;;;;;24.10;90.80;;;;;;2013829;28;20352;-72
2022/08/14 05:43:05;;;;;;;;;;;24.10;90.60;;;;;;2013680;28;19937;-72
2022/08/14 05:44:04;;;;;;;;;;;24.10;90.70;;;;;;2013796;28;20322;-73
2022/08/14 05:45:03;;;;;;;;;;;24.00;90.70;;;;;;2013222;28;20277;-70
2022/08/14 05:46:02;;;;;;;;;;;24.10;90.80;;;;;;2013218;28;19916;-74
2022/08/14 05:47:00;;;;;;;;;;;24.00;90.80;;;;;;2013805;28;20364;-71
2022/08/14 05:47:59;;;;;;;;;;;24.10;90.80;;;;;;2013767;28;19976;-71
2022/08/14 05:48:58;;;;;;;;;;;24.10;90.80;;;;;;2013753;28;19917;-71
2022/08/14 05:49:57;;;;;;;;;;;24.10;90.80;;;;;;2013791;28;19909;-72
2022/08/14 05:50:55;;;;;;;;;;;24.00;90.60;;;;;;2013755;28;19909;-72
2022/08/14 05:51:54;;;;;;;;;;;24.10;90.70;;;;;;2013856;28;19913;-72
2022/08/14 05:52:53;;;;;;;;;;;24.10;90.80;;;;;;2013839;28;20415;-72
2022/08/14 05:53:52;;;;;;;;;;;24.10;90.90;;;;;;2013753;28;19959;-71
2022/08/14 05:54:50;;;;;;;;;;;24.00;90.80;;;;;;2013754;28;19909;-72
2022/08/14 05:55:49;;;;;;;;;;;24.10;90.80;;;;;;2013659;28;19931;-71
2022/08/14 05:56:47;;;;;;;;;;;24.00;90.80;;;;;;2013973;28;19986;-71
2022/08/14 05:57:50;;;;;;;;;;;24.10;91.00;;;;;;2013737;28;19909;-71